Terminal Aerodrome Forecast
Issued by NWS Duluth, MN

Home | Current Version | Previous Version | Text Only | Print | Product List | Glossary On
Versions: 1 2 3 4 5 6 7 8 9 10 11 12 13 14 15 16 17 18 19 20 21 22 23 24 25 26
000
FTUS43 KDLH 181142
TAFDLH
TAF
KDLH 181142Z 1812/1912 35008KT 3/4SM BR OVC002
     FM181300 34007KT 1 1/2SM BR OVC004
      TEMPO 1814/1815 5SM BR BKN004
     FM181500 32006KT P6SM BKN050
     FM190100 28004KT P6SM SCT140=

USA.gov is the U.S. government's official web portal to all federal, state and local government web resources and services.